createdAt,value
2023-03-22T00:01:53.784Z,6.80
2023-03-22T00:03:58.713Z,6.43
2023-03-22T00:06:06.376Z,6.45
2023-03-22T00:08:13.525Z,7.13
2023-03-22T00:10:21.041Z,7.95
2023-03-22T00:12:25.912Z,7.60
2023-03-22T00:14:30.809Z,7.50
2023-03-22T00:16:35.808Z,7.68
2023-03-22T00:18:40.599Z,6.97
2023-03-22T00:20:50.698Z,7.82
2023-03-22T00:22:58.119Z,9.07
2023-03-22T00:25:02.977Z,7.68
2023-03-22T00:27:07.880Z,6.63
2023-03-22T00:29:12.737Z,8.00
2023-03-22T00:31:21.847Z,9.63
2023-03-22T00:33:27.341Z,9.02
2023-03-22T00:35:32.320Z,7.70
2023-03-22T00:37:38.781Z,7.18
2023-03-22T00:39:46.765Z,7.72
2023-03-22T00:41:51.711Z,8.05
2023-03-22T00:43:57.068Z,7.68
2023-03-22T00:46:02.022Z,7.22
2023-03-22T00:48:07.266Z,7.00
2023-03-22T00:52:17.284Z,7.53
2023-03-22T00:54:25.210Z,7.63
2023-03-22T00:56:34.052Z,7.75
2023-03-22T00:58:48.750Z,7.75
2023-03-22T01:00:53.845Z,7.55
2023-03-22T01:05:05.145Z,7.00
2023-03-22T01:07:09.978Z,6.72
2023-03-22T01:09:15.355Z,7.32
2023-03-22T01:13:28.327Z,7.47
2023-03-22T01:15:33.489Z,6.95
2023-03-22T01:17:38.446Z,7.10
2023-03-22T01:19:43.383Z,7.28
2023-03-22T01:21:48.403Z,7.45
2023-03-22T01:23:53.306Z,7.35
2023-03-22T01:25:58.241Z,8.90
2023-03-22T01:28:03.887Z,7.28
2023-03-22T01:30:13.403Z,7.68
2023-03-22T01:32:21.679Z,7.13
2023-03-22T01:34:27.885Z,7.20
2023-03-22T01:36:34.649Z,6.72
2023-03-22T01:38:39.571Z,6.55
2023-03-22T01:40:44.672Z,6.68
2023-03-22T01:42:49.823Z,6.38
2023-03-22T01:45:39.560Z,6.20
2023-03-22T01:47:50.523Z,5.88
2023-03-22T01:49:55.641Z,5.65
2023-03-22T01:52:03.841Z,5.80
2023-03-22T01:54:37.846Z,5.57
2023-03-22T01:56:55.643Z,6.28
2023-03-22T01:59:13.930Z,6.53
2023-03-22T02:01:38.574Z,6.25
2023-03-22T02:03:53.257Z,6.65
2023-03-22T02:05:59.996Z,6.50
2023-03-22T02:08:05.612Z,6.20
2023-03-22T02:10:30.898Z,6.18
2023-03-22T02:12:50.781Z,6.55
2023-03-22T02:15:20.899Z,6.50
2023-03-22T02:17:55.053Z,6.30
2023-03-22T02:20:41.917Z,6.60
2023-03-22T02:23:22.856Z,6.43
2023-03-22T02:25:43.897Z,6.22
2023-03-22T02:28:18.547Z,6.25
2023-03-22T02:30:51.182Z,6.10
2023-03-22T02:33:08.510Z,5.70
2023-03-22T02:35:30.623Z,6.10
2023-03-22T02:37:54.503Z,6.65
2023-03-22T02:40:05.709Z,5.78
2023-03-22T02:42:30.555Z,7.30
2023-03-22T02:44:44.969Z,6.95
2023-03-22T02:46:57.680Z,7.47
2023-03-22T02:49:07.929Z,6.47
2023-03-22T02:51:18.310Z,6.07
2023-03-22T02:53:27.716Z,6.00
2023-03-22T02:55:40.656Z,6.35
2023-03-22T02:57:50.293Z,5.80
2023-03-22T02:59:57.336Z,5.90
2023-03-22T03:02:06.212Z,5.93
2023-03-22T03:04:16.910Z,6.22
2023-03-22T03:06:25.826Z,6.63
2023-03-22T03:08:32.030Z,6.10
2023-03-22T03:10:42.726Z,6.72
2023-03-22T03:12:47.710Z,6.30
2023-03-22T03:14:52.811Z,6.35
2023-03-22T03:19:24.491Z,6.75
2023-03-22T03:21:42.601Z,6.18
2023-03-22T03:23:52.496Z,6.55
2023-03-22T03:26:06.514Z,6.30
2023-03-22T03:28:17.796Z,6.10
2023-03-22T03:30:33.128Z,7.07
2023-03-22T03:32:42.154Z,8.13
2023-03-22T03:34:52.876Z,6.20
2023-03-22T03:37:03.367Z,7.03
2023-03-22T03:39:12.798Z,6.40
2023-03-22T03:41:23.055Z,6.93
2023-03-22T03:43:28.433Z,7.25
2023-03-22T03:47:40.713Z,6.72
2023-03-22T03:49:46.349Z,6.78
2023-03-22T03:51:54.102Z,6.18
2023-03-22T03:53:59.186Z,5.93
2023-03-22T03:56:04.056Z,6.45
2023-03-22T03:58:18.902Z,6.13
2023-03-22T04:00:25.168Z,6.72
2023-03-22T04:02:50.302Z,5.95
2023-03-22T04:05:16.508Z,5.60
2023-03-22T04:07:21.668Z,5.75
2023-03-22T04:09:27.482Z,6.35
2023-03-22T04:11:36.839Z,6.43
2023-03-22T04:13:46.473Z,5.90
2023-03-22T04:15:58.134Z,5.72
2023-03-22T04:18:03.589Z,5.78
2023-03-22T04:20:13.463Z,6.85
2023-03-22T04:22:18.707Z,5.50
2023-03-22T04:24:25.081Z,5.70
2023-03-22T04:26:30.564Z,5.47
2023-03-22T04:29:05.168Z,6.38
2023-03-22T04:31:11.285Z,9.00
2023-03-22T04:33:26.255Z,7.38
2023-03-22T04:35:47.224Z,6.57
2023-03-22T04:37:53.855Z,6.82
2023-03-22T04:40:00.428Z,5.90
2023-03-22T04:42:14.218Z,5.55
2023-03-22T04:44:22.931Z,5.40
2023-03-22T04:46:29.188Z,5.20
2023-03-22T04:48:41.327Z,6.22
2023-03-22T04:50:48.590Z,6.13
2023-03-22T04:52:54.130Z,6.20
2023-03-22T04:54:59.205Z,6.50
2023-03-22T04:57:04.298Z,6.70
2023-03-22T04:59:17.934Z,5.95
2023-03-22T05:01:29.383Z,5.90
2023-03-22T05:03:47.584Z,7.22
2023-03-22T05:05:56.770Z,6.25
2023-03-22T05:08:06.953Z,6.57
2023-03-22T05:10:13.494Z,5.55
2023-03-22T05:12:19.127Z,5.65
2023-03-22T05:14:27.742Z,6.07
2023-03-22T05:18:42.555Z,6.28
2023-03-22T05:20:47.479Z,5.97
2023-03-22T05:22:57.078Z,6.38
2023-03-22T05:25:04.801Z,6.10
2023-03-22T05:27:11.055Z,5.88
2023-03-22T05:29:16.282Z,5.82
2023-03-22T05:31:41.520Z,6.15
2023-03-22T05:33:46.825Z,6.28
2023-03-22T05:35:54.668Z,6.65
2023-03-22T05:38:01.307Z,6.28
2023-03-22T05:40:11.428Z,6.63
2023-03-22T05:42:20.135Z,5.82
2023-03-22T05:44:25.385Z,5.40
2023-03-22T05:46:49.018Z,6.43
2023-03-22T05:49:08.779Z,5.88
2023-03-22T05:51:22.571Z,6.60
2023-03-22T05:53:29.389Z,6.20
2023-03-22T05:55:38.387Z,6.60
2023-03-22T05:57:44.446Z,6.93
2023-03-22T05:59:49.272Z,6.78
2023-03-22T06:02:04.375Z,7.25
2023-03-22T06:04:09.452Z,6.22
2023-03-22T06:06:28.212Z,6.00
2023-03-22T06:09:07.281Z,6.88
2023-03-22T06:11:20.938Z,6.93
2023-03-22T06:13:25.836Z,7.00
2023-03-22T06:15:31.065Z,6.63
2023-03-22T06:19:58.839Z,6.43
2023-03-22T06:22:03.763Z,6.53
2023-03-22T06:24:11.364Z,6.60
2023-03-22T06:28:21.624Z,6.75
2023-03-22T06:30:29.537Z,7.72
2023-03-22T06:32:51.474Z,7.03
2023-03-22T06:34:56.443Z,6.95
2023-03-22T06:37:02.525Z,7.07
2023-03-22T06:39:13.335Z,7.30
2023-03-22T06:41:21.445Z,6.45
2023-03-22T06:43:28.815Z,7.20
2023-03-22T06:45:44.192Z,7.22
2023-03-22T06:50:14.902Z,7.53
2023-03-22T06:52:33.585Z,7.40
2023-03-22T06:54:38.750Z,7.32
2023-03-22T06:56:43.907Z,7.07
2023-03-22T07:00:54.099Z,6.38
2023-03-22T07:03:04.515Z,7.30
2023-03-22T07:05:14.224Z,6.68
2023-03-22T07:07:20.469Z,6.57
2023-03-22T07:09:27.427Z,7.15
2023-03-22T07:11:35.787Z,6.22
2023-03-22T07:13:41.601Z,6.30
2023-03-22T07:15:51.013Z,6.55
2023-03-22T07:18:13.027Z,7.03
2023-03-22T07:20:20.745Z,7.15
2023-03-22T07:22:27.393Z,6.78
2023-03-22T07:24:33.092Z,7.03
2023-03-22T07:26:40.911Z,6.47
2023-03-22T07:28:47.731Z,6.32
2023-03-22T07:31:02.711Z,6.40
2023-03-22T07:33:15.544Z,6.95
2023-03-22T07:35:22.134Z,6.18
2023-03-22T07:37:27.287Z,6.18
2023-03-22T07:39:32.880Z,6.47
2023-03-22T07:41:39.073Z,6.05
2023-03-22T07:44:16.908Z,6.28
2023-03-22T07:46:32.559Z,5.63
2023-03-22T07:49:06.382Z,6.13
2023-03-22T07:53:36.768Z,5.32
2023-03-22T07:55:42.878Z,6.18
2023-03-22T07:57:47.854Z,5.82
2023-03-22T07:59:52.724Z,5.25
2023-03-22T08:01:57.959Z,5.65
2023-03-22T08:04:10.338Z,5.05
2023-03-22T08:06:25.322Z,4.70
2023-03-22T08:08:30.484Z,4.78
2023-03-22T08:10:35.864Z,5.07
2023-03-22T08:12:40.684Z,4.40
2023-03-22T08:14:53.318Z,4.00
2023-03-22T08:17:02.075Z,4.30
2023-03-22T08:19:07.158Z,3.88
2023-03-22T08:21:17.601Z,3.60
2023-03-22T08:23:40.911Z,3.70
2023-03-22T08:26:05.307Z,3.78
2023-03-22T08:28:12.185Z,4.00
2023-03-22T08:30:20.978Z,3.42
2023-03-22T08:32:26.572Z,4.15
2023-03-22T08:36:40.952Z,3.83
2023-03-22T08:38:46.399Z,3.22
2023-03-22T08:40:54.278Z,2.97
2023-03-22T08:43:02.793Z,3.38
2023-03-22T08:45:10.431Z,2.95
2023-03-22T08:47:22.659Z,3.00
2023-03-22T08:49:31.901Z,2.90
2023-03-22T08:51:45.514Z,2.67
2023-03-22T08:53:58.826Z,2.63
2023-03-22T08:56:25.873Z,2.95
2023-03-22T08:58:42.485Z,2.75
2023-03-22T09:01:13.656Z,2.65
2023-03-22T09:03:27.371Z,2.53
2023-03-22T09:05:32.177Z,2.20
2023-03-22T09:07:39.906Z,2.78
2023-03-22T09:09:53.985Z,3.10
2023-03-22T09:11:59.382Z,2.17
2023-03-22T09:16:10.483Z,2.50
2023-03-22T09:18:16.778Z,2.10
2023-03-22T09:20:25.377Z,1.80
2023-03-22T09:22:30.601Z,2.00
2023-03-22T09:24:38.023Z,2.60
2023-03-22T09:26:43.024Z,1.90
2023-03-22T09:28:48.321Z,2.03
2023-03-22T09:30:53.452Z,1.80
2023-03-22T09:32:58.939Z,2.13
2023-03-22T09:35:04.016Z,2.35
2023-03-22T09:37:17.190Z,1.95
2023-03-22T09:39:28.853Z,2.08
2023-03-22T09:41:42.589Z,2.10
2023-03-22T09:43:53.946Z,1.95
2023-03-22T09:45:59.653Z,2.10
2023-03-22T09:48:09.540Z,2.63
2023-03-22T09:50:18.005Z,2.15
2023-03-22T09:52:23.545Z,2.33
2023-03-22T09:56:43.007Z,1.77
2023-03-22T09:58:53.662Z,1.80
2023-03-22T10:01:02.882Z,1.67
2023-03-22T10:03:21.825Z,1.50
2023-03-22T10:05:34.628Z,2.00
2023-03-22T10:07:56.736Z,1.60
2023-03-22T10:10:11.048Z,1.50
2023-03-22T10:12:28.104Z,1.33
2023-03-22T10:14:36.342Z,1.40
2023-03-22T10:16:42.648Z,1.50
2023-03-22T10:18:52.289Z,1.50
2023-03-22T10:21:02.645Z,1.30
2023-03-22T10:23:13.633Z,1.40
2023-03-22T10:25:21.819Z,1.42
2023-03-22T10:27:31.617Z,1.52
2023-03-22T10:29:41.321Z,1.30
2023-03-22T10:31:47.400Z,1.38
2023-03-22T10:34:00.652Z,1.23
2023-03-22T10:36:08.745Z,1.25
2023-03-22T10:38:23.867Z,1.40
2023-03-22T10:40:32.043Z,1.55
2023-03-22T10:42:42.147Z,1.23
2023-03-22T10:44:52.055Z,0.95
2023-03-22T10:46:59.300Z,1.70
2023-03-22T10:49:06.734Z,1.35
2023-03-22T10:51:23.425Z,1.30
2023-03-22T10:53:37.798Z,1.00
2023-03-22T10:55:43.530Z,1.60
2023-03-22T10:57:59.836Z,1.90
2023-03-22T11:00:10.155Z,1.35
2023-03-22T11:02:21.796Z,1.40
2023-03-22T11:04:27.384Z,1.00
2023-03-22T11:06:35.402Z,1.20
2023-03-22T11:08:49.156Z,1.60
2023-03-22T11:10:59.265Z,1.42
2023-03-22T11:13:24.551Z,1.48
2023-03-22T11:15:32.604Z,1.27
2023-03-22T11:17:41.811Z,1.30
2023-03-22T11:19:55.513Z,1.27
2023-03-22T11:22:01.974Z,1.30
2023-03-22T11:24:09.866Z,1.10
2023-03-22T11:26:16.884Z,1.35
2023-03-22T11:28:29.010Z,1.45
2023-03-22T11:30:36.007Z,1.40
2023-03-22T11:32:42.316Z,1.40
2023-03-22T11:34:48.700Z,1.25
2023-03-22T11:36:57.210Z,1.60
2023-03-22T11:39:04.497Z,1.20
2023-03-22T11:41:11.824Z,1.40
2023-03-22T11:43:22.397Z,1.00
2023-03-22T11:45:32.647Z,1.10
2023-03-22T11:47:41.389Z,1.10
2023-03-22T11:49:49.788Z,1.15
2023-03-22T11:51:55.152Z,1.48
2023-03-22T11:54:11.672Z,1.02
2023-03-22T11:56:29.138Z,0.80
2023-03-22T11:58:53.163Z,1.30
2023-03-22T12:01:04.935Z,1.25
2023-03-22T12:03:16.689Z,1.50
2023-03-22T12:05:25.792Z,1.10
2023-03-22T12:07:32.948Z,1.17
2023-03-22T12:09:44.034Z,1.10
2023-03-22T12:11:52.590Z,0.95
2023-03-22T12:14:02.387Z,1.13
2023-03-22T12:16:15.083Z,1.00
2023-03-22T12:18:27.597Z,1.40
2023-03-22T12:20:40.736Z,1.60
2023-03-22T12:22:51.961Z,1.25
2023-03-22T12:24:57.845Z,1.20
2023-03-22T12:27:09.221Z,0.95
2023-03-22T12:29:22.128Z,1.80
2023-03-22T12:31:34.240Z,1.23
2023-03-22T12:33:46.036Z,1.23
2023-03-22T12:35:54.247Z,1.40
2023-03-22T12:38:02.223Z,1.10
2023-03-22T12:40:11.855Z,1.00
2023-03-22T12:42:23.398Z,1.00
2023-03-22T12:44:31.919Z,1.40
2023-03-22T12:46:52.823Z,1.00
2023-03-22T12:49:03.836Z,0.98
2023-03-22T12:51:11.695Z,1.08
2023-03-22T12:53:22.295Z,0.88
2023-03-22T12:55:31.620Z,1.30
2023-03-22T12:57:38.610Z,1.00
2023-03-22T12:59:46.970Z,1.17
2023-03-22T13:01:58.852Z,1.40
2023-03-22T13:04:31.425Z,1.27
2023-03-22T13:06:58.307Z,2.35
2023-03-22T13:09:21.538Z,0.90
2023-03-22T13:11:27.338Z,1.27
2023-03-22T13:13:49.486Z,1.00
2023-03-22T13:16:03.698Z,1.00
2023-03-22T13:18:33.491Z,0.75
2023-03-22T13:20:41.177Z,0.98
2023-03-22T13:23:02.459Z,1.13
2023-03-22T13:25:17.287Z,1.00
2023-03-22T13:27:23.761Z,0.90
2023-03-22T13:29:38.259Z,1.30
2023-03-22T13:31:46.885Z,0.90
2023-03-22T13:33:58.055Z,0.70
2023-03-22T13:36:09.234Z,1.00
2023-03-22T13:38:23.913Z,0.90
2023-03-22T13:40:38.892Z,0.82
2023-03-22T13:42:45.077Z,0.88
2023-03-22T13:44:58.673Z,1.00
2023-03-22T13:47:04.650Z,0.90
2023-03-22T13:49:28.916Z,0.88
2023-03-22T13:51:35.029Z,1.17
2023-03-22T13:53:41.176Z,0.98
2023-03-22T13:56:03.383Z,0.80
2023-03-22T13:58:13.840Z,0.63
2023-03-22T14:00:37.993Z,0.65
2023-03-22T14:02:45.187Z,0.75
2023-03-22T14:04:57.091Z,0.70
2023-03-22T14:07:08.347Z,1.00
2023-03-22T14:09:23.559Z,0.90
2023-03-22T14:11:35.791Z,0.75
2023-03-22T14:13:46.579Z,0.80
2023-03-22T14:15:54.901Z,0.70
2023-03-22T14:18:05.988Z,0.95
2023-03-22T14:20:19.572Z,0.80
2023-03-22T14:52:17.881Z,0.63
2023-03-22T14:54:26.788Z,0.70
2023-03-22T14:56:34.455Z,0.90
2023-03-22T14:58:44.486Z,0.80
2023-03-22T15:00:50.463Z,0.60
2023-03-22T15:02:59.696Z,0.70
2023-03-22T15:05:09.434Z,0.60
2023-03-22T15:07:22.045Z,0.65
2023-03-22T15:09:27.916Z,0.75
2023-03-22T15:11:34.252Z,0.95
2023-03-22T15:13:41.650Z,0.60
2023-03-22T15:15:48.477Z,0.90
2023-03-22T15:17:55.093Z,0.68
2023-03-22T15:20:00.192Z,1.02
2023-03-22T15:24:36.793Z,0.85
2023-03-22T15:26:42.934Z,0.80
2023-03-22T15:28:56.508Z,0.70
2023-03-22T15:31:03.968Z,0.63
2023-03-22T15:33:11.748Z,0.65
2023-03-22T15:35:18.708Z,0.60
2023-03-22T15:37:29.973Z,0.80
2023-03-22T15:39:42.571Z,0.90
2023-03-22T15:41:54.409Z,1.17
2023-03-22T15:44:03.694Z,1.20
2023-03-22T15:46:19.587Z,2.20
2023-03-22T15:48:29.896Z,1.10
2023-03-22T15:50:42.269Z,1.00
2023-03-22T15:52:52.549Z,0.80
2023-03-22T15:55:05.413Z,1.00
2023-03-22T15:57:13.497Z,1.60
2023-03-22T15:59:28.974Z,1.55
2023-03-22T16:01:44.861Z,1.50
2023-03-22T16:03:56.268Z,2.17
2023-03-22T16:06:01.579Z,2.20
2023-03-22T16:10:19.112Z,1.30
2023-03-22T16:12:24.938Z,1.00
2023-03-22T16:14:29.872Z,0.60
2023-03-22T16:16:34.910Z,0.70
2023-03-22T16:20:44.873Z,1.05
2023-03-22T16:22:52.009Z,0.70
2023-03-22T16:24:57.745Z,0.77
2023-03-22T16:27:05.336Z,1.08
2023-03-22T16:29:10.303Z,1.05
2023-03-22T16:31:17.959Z,0.85
2023-03-22T16:33:25.558Z,0.90
2023-03-22T16:35:31.194Z,0.75
2023-03-22T16:37:37.793Z,0.80
2023-03-22T16:39:42.744Z,0.90
2023-03-22T16:43:56.436Z,0.90
2023-03-22T16:46:01.886Z,0.70
2023-03-22T16:48:07.344Z,1.08
2023-03-22T16:50:12.947Z,0.90
2023-03-22T16:52:21.924Z,0.82
2023-03-22T16:54:26.913Z,0.73
2023-03-22T16:56:32.861Z,1.02
2023-03-22T16:58:38.011Z,1.00
2023-03-22T17:00:45.583Z,1.27
2023-03-22T17:02:51.962Z,1.05
2023-03-22T17:04:57.080Z,1.10
2023-03-22T17:09:06.849Z,1.20
2023-03-22T17:13:24.237Z,1.00
2023-03-22T17:15:33.091Z,1.10
2023-03-22T17:17:40.769Z,1.13
2023-03-22T17:19:46.031Z,1.30
2023-03-22T17:21:50.895Z,1.25
2023-03-22T17:23:56.406Z,2.10
2023-03-22T17:26:04.119Z,2.10
2023-03-22T17:28:10.351Z,1.45
2023-03-22T17:30:16.383Z,1.60
2023-03-22T17:32:36.811Z,1.38
2023-03-22T17:34:49.282Z,1.50
2023-03-22T17:36:54.175Z,1.60
2023-03-22T17:39:17.933Z,1.70
2023-03-22T17:41:24.104Z,1.52
2023-03-22T17:43:29.019Z,1.25
2023-03-22T17:46:05.530Z,1.40
2023-03-22T17:48:01.631Z,1.58
2023-03-22T17:50:10.193Z,2.40
2023-03-22T17:52:17.770Z,6.07
2023-03-22T17:54:57.085Z,10.00
2023-03-22T17:57:23.102Z,8.98
2023-03-22T17:59:14.405Z,7.10
2023-03-22T18:01:23.738Z,5.18
2023-03-22T18:03:28.864Z,4.28
2023-03-22T18:05:36.408Z,4.90
2023-03-22T18:07:41.886Z,5.10
2023-03-22T18:09:47.216Z,6.68
2023-03-22T18:11:52.333Z,5.97
2023-03-22T18:16:25.167Z,5.70
2023-03-22T18:18:50.146Z,6.03
2023-03-22T18:23:03.330Z,12.68
2023-03-22T18:27:15.173Z,12.13
2023-03-22T18:29:21.186Z,13.13
2023-03-22T18:31:26.360Z,11.68
2023-03-22T18:33:31.527Z,10.82
2023-03-22T18:37:44.112Z,11.85
2023-03-22T18:40:32.643Z,11.95
2023-03-22T18:42:20.429Z,11.15
2023-03-22T18:44:30.686Z,9.85
2023-03-22T18:46:36.035Z,8.90
2023-03-22T18:48:42.499Z,9.85
2023-03-22T18:50:47.553Z,10.95
2023-03-22T18:55:29.507Z,8.77
2023-03-22T18:57:41.672Z,7.97
2023-03-22T18:59:46.818Z,7.57
2023-03-22T19:02:07.540Z,7.03
2023-03-22T19:04:15.701Z,6.47
2023-03-22T19:06:22.372Z,6.82
2023-03-22T19:08:33.460Z,7.35
2023-03-22T19:10:40.629Z,6.88
2023-03-22T19:12:48.494Z,6.43
2023-03-22T19:15:31.887Z,5.07
2023-03-22T19:17:20.312Z,6.63
2023-03-22T19:19:25.521Z,13.45
2023-03-22T19:23:40.531Z,7.53
2023-03-22T19:25:46.951Z,6.38
2023-03-22T19:27:52.085Z,5.50
2023-03-22T19:29:57.237Z,18.75
2023-03-22T19:32:02.771Z,6.75
2023-03-22T19:34:08.265Z,5.45
2023-03-22T19:36:13.466Z,6.45
2023-03-22T19:42:36.818Z,7.85
2023-03-22T19:44:41.983Z,5.18
2023-03-22T19:46:53.003Z,5.18
2023-03-22T19:49:01.408Z,5.13
2023-03-22T19:51:09.402Z,4.95
2023-03-22T19:53:48.606Z,4.60
2023-03-22T19:55:43.547Z,5.18
2023-03-22T19:57:48.586Z,5.45
2023-03-22T20:02:18.935Z,5.70
2023-03-22T20:06:29.328Z,5.53
2023-03-22T20:08:43.989Z,5.70
2023-03-22T20:10:56.919Z,4.95
2023-03-22T20:13:02.260Z,5.07
2023-03-22T20:15:07.791Z,4.53
2023-03-22T20:17:24.317Z,5.18
2023-03-22T20:19:34.651Z,5.70
2023-03-22T20:21:45.113Z,5.70
2023-03-22T20:23:50.132Z,5.53
2023-03-22T20:26:01.003Z,5.40
2023-03-22T20:28:06.836Z,5.90
2023-03-22T20:30:13.598Z,5.05
2023-03-22T20:32:24.336Z,5.13
2023-03-22T20:34:29.514Z,5.32
2023-03-22T20:38:44.565Z,5.97
2023-03-22T20:40:49.559Z,6.13
2023-03-22T20:42:57.136Z,4.93
2023-03-22T20:45:05.055Z,5.47
2023-03-22T20:47:10.240Z,6.82
2023-03-22T20:51:25.622Z,7.65
2023-03-22T20:53:30.822Z,7.03
2023-03-22T20:55:35.966Z,6.95
2023-03-22T20:57:40.990Z,6.45
2023-03-22T20:59:48.502Z,5.90
2023-03-22T21:01:54.456Z,5.80
2023-03-22T21:04:00.296Z,5.75
2023-03-22T21:06:09.329Z,5.70
2023-03-22T21:08:14.977Z,6.70
2023-03-22T21:10:25.186Z,5.60
2023-03-22T21:12:30.180Z,5.82
2023-03-22T21:14:35.076Z,5.75
2023-03-22T21:16:44.267Z,5.82
2023-03-22T21:18:49.207Z,7.22
2023-03-22T21:20:55.662Z,5.55
2023-03-22T21:23:00.788Z,5.65
2023-03-22T21:27:12.334Z,6.25
2023-03-22T21:29:17.253Z,6.15
2023-03-22T21:31:24.304Z,6.45
2023-03-22T21:33:31.801Z,6.35
2023-03-22T21:35:36.916Z,5.88
2023-03-22T21:39:48.888Z,5.72
2023-03-22T21:41:53.860Z,5.95
2023-03-22T21:44:00.516Z,5.78
2023-03-22T21:46:10.623Z,5.63
2023-03-22T21:48:17.390Z,4.90
2023-03-22T21:50:25.671Z,5.10
2023-03-22T21:52:30.963Z,4.68
2023-03-22T21:54:35.941Z,4.90
2023-03-22T21:56:42.241Z,4.75
2023-03-22T21:58:47.287Z,5.38
2023-03-22T22:00:55.637Z,5.38
2023-03-22T22:03:01.462Z,6.07
2023-03-22T22:05:06.598Z,4.97
2023-03-22T22:09:20.196Z,4.80
2023-03-22T22:11:25.141Z,6.05
2023-03-22T22:13:31.241Z,5.70
2023-03-22T22:15:37.461Z,5.78
2023-03-22T22:17:43.472Z,5.60
2023-03-22T22:19:48.361Z,5.72
2023-03-22T22:21:53.689Z,6.10
2023-03-22T22:26:09.053Z,5.28
2023-03-22T22:28:14.149Z,5.35
2023-03-22T22:30:20.489Z,5.22
2023-03-22T22:32:25.416Z,5.30
2023-03-22T22:34:30.496Z,5.88
2023-03-22T22:36:36.345Z,5.72
2023-03-22T22:40:49.252Z,6.07
2023-03-22T22:42:54.228Z,5.82
2023-03-22T22:44:59.870Z,5.60
2023-03-22T22:47:04.740Z,5.65
2023-03-22T22:49:09.614Z,5.82
2023-03-22T22:51:17.408Z,6.80
2023-03-22T22:53:23.888Z,6.20
2023-03-22T22:55:28.933Z,5.68
2023-03-22T22:57:37.168Z,6.55
2023-03-22T22:59:42.178Z,5.07
2023-03-22T23:01:47.162Z,5.68
2023-03-22T23:05:57.299Z,5.47
2023-03-22T23:10:10.214Z,5.88
2023-03-22T23:12:15.605Z,5.43
2023-03-22T23:14:30.830Z,5.22
2023-03-22T23:16:39.193Z,5.03
2023-03-22T23:18:54.419Z,5.45
2023-03-22T23:21:00.377Z,5.85
2023-03-22T23:23:07.352Z,5.88
2023-03-22T23:25:13.036Z,5.80
2023-03-22T23:27:20.300Z,5.20
2023-03-22T23:29:28.054Z,5.72
2023-03-22T23:31:33.068Z,5.75
2023-03-22T23:33:41.704Z,5.80
2023-03-22T23:35:51.050Z,5.30
2023-03-22T23:37:57.596Z,5.82
2023-03-22T23:40:08.582Z,5.10
2023-03-22T23:42:13.706Z,5.63
2023-03-22T23:44:20.046Z,5.82
2023-03-22T23:46:28.539Z,5.63
2023-03-22T23:48:35.687Z,5.57
2023-03-22T23:50:40.624Z,5.93
2023-03-22T23:54:51.048Z,5.95
2023-03-22T23:56:56.019Z,5.28
2023-03-22T23:59:01.041Z,4.55
